Map

Track Data

SID SEASON NUMBER BASIN SUBBASIN NAME ISO_TIME NATURE LAT LON WMO_WIND WMO_PRES WMO_AGENCY TRACK_TYPE DIST2LAND LANDFALL IFLAG USA_AGENCY USA_ATCF_ID USA_LAT USA_LON USA_RECORD USA_STATUS USA_WIND USA_PRES USA_SSHS USA_R34_NE USA_R34_SE USA_R34_SW USA_R34_NW USA_R50_NE USA_R50_SE USA_R50_SW USA_R50_NW USA_R64_NE USA_R64_SE USA_R64_SW USA_R64_NW USA_POCI USA_ROCI USA_RMW USA_EYE TOKYO_LAT TOKYO_LON TOKYO_GRADE TOKYO_WIND TOKYO_PRES TOKYO_R50_DIR TOKYO_R50_LONG TOKYO_R50_SHORT TOKYO_R30_DIR TOKYO_R30_LONG TOKYO_R30_SHORT TOKYO_LAND CMA_LAT CMA_LON CMA_CAT CMA_WIND CMA_PRES HKO_LAT HKO_LON HKO_CAT HKO_WIND HKO_PRES NEWDELHI_LAT NEWDELHI_LON NEWDELHI_GRADE NEWDELHI_WIND NEWDELHI_PRES NEWDELHI_CI NEWDELHI_DP NEWDELHI_POCI REUNION_LAT REUNION_LON REUNION_TYPE REUNION_WIND REUNION_PRES REUNION_TNUM REUNION_CI REUNION_RMW REUNION_R34_NE REUNION_R34_SE REUNION_R34_SW REUNION_R34_NW REUNION_R50_NE REUNION_R50_SE REUNION_R50_SW REUNION_R50_NW REUNION_R64_NE REUNION_R64_SE REUNION_R64_SW REUNION_R64_NW BOM_LAT BOM_LON BOM_TYPE BOM_WIND BOM_PRES BOM_TNUM BOM_CI BOM_RMW BOM_R34_NE BOM_R34_SE BOM_R34_SW BOM_R34_NW BOM_R50_NE BOM_R50_SE BOM_R50_SW BOM_R50_NW BOM_R64_NE BOM_R64_SE BOM_R64_SW BOM_R64_NW BOM_ROCI BOM_POCI BOM_EYE BOM_POS_METHOD BOM_PRES_METHOD NADI_LAT NADI_LON NADI_CAT NADI_WIND NADI_PRES WELLINGTON_LAT WELLINGTON_LON WELLINGTON_WIND WELLINGTON_PRES DS824_LAT DS824_LON DS824_STAGE DS824_WIND DS824_PRES TD9636_LAT TD9636_LON TD9636_STAGE TD9636_WIND TD9636_PRES TD9635_LAT TD9635_LON TD9635_WIND TD9635_PRES TD9635_ROCI NEUMANN_LAT NEUMANN_LON NEUMANN_CLASS NEUMANN_WIND NEUMANN_PRES MLC_LAT MLC_LON MLC_CLASS MLC_WIND MLC_PRES USA_GUST BOM_GUST BOM_GUST_PER REUNION_GUST REUNION_GUST_PER USA_SEAHGT USA_SEARAD_NE USA_SEARAD_SE USA_SEARAD_SW USA_SEARAD_NW STORM_SPEED STORM_DIR
1962045S14168 1962 18 SP MM NOT_NAMED 1962-02-13 12:00:00 TS -14.4000 168.000 main 117 117 O________OO___ jtwc_sh SH151962 -14.4000 168.000 -1 -14.4000 168.000 TC -14.4000 168.000 2 4 135
1962045S14168 1962 18 SP MM NOT_NAMED 1962-02-13 15:00:00 TS -14.5316 168.134 main 121 121 P________PP___ SH151962 -14.5350 168.112 -1 -14.5350 168.112 TC -14.5248 168.178 2 4 133
1962045S14168 1962 18 SP MM NOT_NAMED 1962-02-13 18:00:00 TS -14.6966 168.331 main 133 133 O________OP___ jtwc_sh SH151962 -14.7000 168.300 -1 -14.7000 168.300 TC -14.6897 168.394 2 6 129
1962045S14168 1962 18 SP MM NOT_NAMED 1962-02-13 21:00:00 TS -14.9332 168.646 main 161 161 P________PP___ SH151962 -14.9324 168.625 -1 -14.9324 168.625 TC -14.9348 168.689 2 10 129
1962045S14168 1962 18 SP MM NOT_NAMED 1962-02-14 00:00:00 TS -15.3000 169.100 main 178 178 O________OO_O_ jtwc_sh SH151962 -15.3000 169.100 -1 -15.3000 169.100 TC -15.3000 169.100 2 -15.3000 169.100 TC 25 14 133
1962045S14168 1962 18 SP MM NOT_NAMED 1962-02-14 03:00:00 TS -15.8627 169.686 main 207 207 P________PP_P_ SH151962 -15.8624 169.690 -1 -15.8624 169.690 TC -15.8068 169.658 2 -15.9754 169.727 TC 25 17 134
1962045S14168 1962 18 SP MM NOT_NAMED 1962-02-14 06:00:00 TS -16.4946 170.386 main 277 277 O________OP_O_ jtwc_sh SH151962 -16.5000 170.400 -1 -16.5000 170.400 TC -16.4047 170.346 2 -16.6000 170.400 TC 25 19 131
1962045S14168 1962 18 SP MM NOT_NAMED 1962-02-14 09:00:00 TS -17.0803 171.147 main 355 355 P________PP_P_ SH151962 -17.0795 171.148 -1 -17.0795 171.148 TC -17.0251 171.136 2 -17.1371 171.155 TC 27 19 126
1962045S14168 1962 18 SP MM NOT_NAMED 1962-02-14 12:00:00 TS -17.6000 172.000 main 460 454 O________OO_O_ jtwc_sh SH151962 -17.6000 172.000 -1 -17.6000 172.000 TC -17.6000 172.000 2 -17.6000 172.000 TC 30 20 119
1962045S14168 1962 18 SP MM NOT_NAMED 1962-02-14 15:00:00 TS -18.0353 172.960 main 444 351 P________PP_P_ SH151962 -18.0301 172.985 -1 -18.0301 172.985 TC -18.0585 172.942 2 -18.0223 172.928 TC 30 20 114
1962045S14168 1962 18 SP MM NOT_NAMED 1962-02-14 18:00:00 TS -18.4144 173.959 main 341 258 O________OP_O_ jtwc_sh SH151962 -18.4000 174.000 -1 -18.4000 174.000 TC -18.4576 173.937 2 -18.4000 173.900 TC 30 20 112
1962045S14168 1962 18 SP MM NOT_NAMED 1962-02-14 21:00:00 TS -18.7818 174.930 main 258 192 P________PP_P_ SH151962 -18.7723 174.953 -1 -18.7723 174.953 TC -18.8025 174.914 2 -18.7802 174.902 TC 32 19 111
1962045S14168 1962 18 SP MM NOT_NAMED 1962-02-15 00:00:00 TS -19.1000 175.800 main 192 158 O________OO_O_ jtwc_sh SH151962 -19.1000 175.800 -1 -19.1000 175.800 TC -19.1000 175.800 2 -19.1000 175.800 TC 35 16 111
1962045S14168 1962 18 SP MM NOT_NAMED 1962-02-15 03:00:00 TS -19.3550 176.495 main 168 158 P________PP_P_ SH151962 -19.3720 176.503 -1 -19.3720 176.503 TC -19.3618 176.523 2 -19.3142 176.453 TC 35 13 111
1962045S14168 1962 18 SP MM NOT_NAMED 1962-02-15 06:00:00 TS -19.5712 177.086 main 165 158 O________OP_O_ jtwc_sh SH151962 -19.6000 177.100 -1 -19.6000 177.100 TC -19.5848 177.145 2 -19.5000 177.000 TC 35 12 111
1962045S14168 1962 18 SP MM NOT_NAMED 1962-02-15 09:00:00 TS -19.7869 177.667 main 169 168 P________PP_P_ SH151962 -19.8073 177.680 -1 -19.8073 177.680 TC -19.7905 177.694 2 -19.7424 177.615 TC 37 11 112
1962045S14168 1962 18 SP MM NOT_NAMED 1962-02-15 12:00:00 TS -20.0000 178.200 main 190 190 O________OO_O_ jtwc_sh SH151962 -20.0000 178.200 -1 -20.0000 178.200 TC -20.0000 178.200 2 -20.0000 178.200 TC 40 10 113
1962045S14168 1962 18 SP MM NOT_NAMED 1962-02-15 15:00:00 TS -20.2021 178.688 main 218 218 P________PP_P_ SH151962 -20.1847 178.658 -1 -20.1847 178.658 TC -20.1891 178.713 2 -20.2498 178.723 TC 42 10 115
1962045S14168 1962 18 SP MM NOT_NAMED 1962-02-15 18:00:00 TS -20.4235 179.148 main 253 253 O________OP_O_ jtwc_sh SH151962 -20.4000 179.100 -1 -20.4000 179.100 TC -20.3939 179.190 2 -20.5000 179.200 TC 45 10 118
1962045S14168 1962 18 SP MM NOT_NAMED 1962-02-15 21:00:00 TS -20.6647 179.623 main 305 305 P________PP_P_ SH151962 -20.6475 179.600 -1 -20.6475 179.600 TC -20.6517 179.647 2 -20.7122 179.643 TC 45 11 123
1962045S14168 1962 18 SP MM NOT_NAMED 1962-02-16 00:00:00 TS -21.0000 180.100 main 356 356 O________OO_O_ jtwc_sh SH151962 -21.0000 -179.900 -1 -21.0000 180.100 TC -21.0000 -179.900 2 -21.0000 -179.900 TC 45 12 132
1962045S14168 1962 18 SP MM NOT_NAMED 1962-02-16 03:00:00 TS -21.4819 180.597 main 429 429 P________PP_P_ SH151962 -21.5048 -179.450 -1 -21.5048 -179.450 TC -21.4780 -179.370 2 -21.4402 -179.343 TC 45 14 139
1962045S14168 1962 18 SP MM NOT_NAMED 1962-02-16 06:00:00 TS -22.0615 181.088 main 512 512 O________OP_O_ jtwc_sh SH151962 -22.1000 -179.000 -1 -22.1000 181.000 TC -22.0459 -178.848 2 -22.0000 -178.800 TC 45 15 142
1962045S14168 1962 18 SP MM NOT_NAMED 1962-02-16 09:00:00 TS -22.6715 181.593 main 596 596 P________PP_P_ SH151962 -22.6928 -178.455 -1 -22.6928 -178.455 TC -22.6657 -178.377 2 -22.6349 -178.340 TC 45 15 146
1962045S14168 1962 18 SP MM NOT_NAMED 1962-02-16 12:00:00 TS -23.3000 182.000 main 675 675 O________OO_O_ jtwc_sh SH151962 -23.3000 -178.000 -1 -23.3000 182.000 TC -23.3000 -178.000 2 -23.3000 -178.000 TC 45 14 156
1962045S14168 1962 18 SP MM NOT_NAMED 1962-02-16 15:00:00 TS -23.9207 182.191 main 743 743 P________PP_P_ SH151962 -23.8997 -177.789 -1 -23.8997 -177.789 TC -23.9761 -177.852 2 -23.9073 -177.804 TC 42 13 168
1962045S14168 1962 18 SP MM NOT_NAMED 1962-02-16 18:00:00 TS -24.5368 182.277 main 806 806 O________OP_O_ jtwc_sh SH151962 -24.5000 -177.700 -1 -24.5000 182.300 TC -24.6471 -177.791 2 -24.5000 -177.700 TC 40 13 175
1962045S14168 1962 18 SP MM NOT_NAMED 1962-02-16 21:00:00 TS -25.1696 182.324 main 876 876 P________PP_P_ SH151962 -25.1446 -177.667 -1 -25.1446 -177.667 TC -25.2446 -177.710 2 -25.1446 -177.659 TC 40 12 170
1962045S14168 1962 18 SP MM NOT_NAMED 1962-02-17 00:00:00 TS -25.7000 182.500 main 935 935 O________OO_O_ jtwc_sh SH151962 -25.7000 -177.500 -1 -25.7000 182.500 TC -25.7000 -177.500 2 -25.7000 -177.500 TC 40 11 148
1962045S14168 1962 18 SP MM NOT_NAMED 1962-02-17 03:00:00 TS -26.1354 183.000 main 997 997 P________PP_P_ SH151962 -26.1128 -176.984 -1 -26.1128 -176.984 TC -26.2035 -176.993 2 -26.1125 -177.041 TC 37 12 122
1962045S14168 1962 18 SP MM NOT_NAMED 1962-02-17 06:00:00 TS -26.3547 183.662 main 1060 1060 O________OP_O_ jtwc_sh SH151962 -26.3000 -176.300 -1 -26.3000 183.700 TC -26.5190 -176.350 2 -26.3000 -176.400 TC 35 12 103
1962045S14168 1962 18 SP MM NOT_NAMED 1962-02-17 09:00:00 TS -26.4080 184.341 main 1091 1091 P________PP_P_ SH151962 -26.3601 -175.628 -1 -26.3601 -175.628 TC -26.4997 -175.656 2 -26.4123 -175.725 TC 35 13 74
1962045S14168 1962 18 SP MM NOT_NAMED 1962-02-17 12:00:00 TS -26.0000 185.000 main 1095 1051 O________OO_O_ jtwc_sh SH151962 -26.0000 -175.000 -1 -26.0000 185.000 TC -26.0000 -175.000 2 -26.0000 -175.000 TC 35 18 39
1962045S14168 1962 18 SP MM NOT_NAMED 1962-02-17 15:00:00 TS -25.0299 185.577 main 1050 976 P________PP_P_ SH151962 -25.1989 -174.513 -1 -25.1989 -174.513 TC -24.9241 -174.453 2 -24.7976 -174.213 TC 32 27 21
1962045S14168 1962 18 SP MM NOT_NAMED 1962-02-17 18:00:00 TS -23.5192 186.048 main 969 874 O________OP_O_ jtwc_sh SH151962 -23.8000 -174.100 -1 -23.8000 185.900 TC -23.3770 -174.007 2 -23.1000 -173.600 TC 30 35 13
1962045S14168 1962 18 SP MM NOT_NAMED 1962-02-17 21:00:00 TS -21.6118 186.407 main 868 653 P________PP_P_ SH151962 -21.8133 -173.697 -1 -21.8133 -173.697 TC -21.5156 -173.633 2 -21.3052 -173.343 TC 27 41 9
1962045S14168 1962 18 SP MM NOT_NAMED 1962-02-18 00:00:00 TS -19.5000 186.700 main 642 O________OO_O_ jtwc_sh SH151962 -19.5000 -173.300 -1 -19.5000 186.700 TC -19.5000 -173.300 2 -19.5000 -173.300 TC 25 43 7

Digital Typhoon Data and Search

About IBTrACS Database

This database is a web-friendly format of International Best Track Archive for Climate Stewardship (IBTrACS), a global best track data archive curated by NOAA dating back to 1842.

Updated: 2021-11-26